This is the latest recevied weather packets stored in our database for station/object KC3HIX. If no packets are shown the sender has not sent any weather packets the latest 10 day(s).
| Time | Temp. | Humidity | Pressure | Rain* | Wind** | Luminosity | Snow |
|---|---|---|---|---|---|---|---|
| 1778028008 | 20° C | 59% | 1007.5 hPa | 0 mm | - | - | - |
| 1778026229 | 21.11° C | 56% | 1007.2 hPa | 0 mm | - | - | - |
| 1778025608 | 21.67° C | 55% | 1007.2 hPa | 0 mm | - | - | - |
| 1778023808 | 23.33° C | 45% | 1007.2 hPa | 0 mm | - | - | - |
| 1778022008 | 24.44° C | 41% | 1006.8 hPa | 0 mm | - | - | - |
| 1778020207 | 25° C | 39% | 1006.2 hPa | 0 mm | - | - | - |
| 1778019607 | 25° C | 39% | 1005.8 hPa | 0 mm | - | - | - |
| 1778018107 | 25.56° C | 37% | 1006.2 hPa | 0 mm | - | - | - |
| 1778017507 | 26.11° C | 36% | 1006.2 hPa | 0 mm | - | - | - |
| 1778016607 | 26.67° C | 34% | 1005.8 hPa | 0 mm | - | - | - |
| 1778015407 | 26.67° C | 33% | 1005.5 hPa | 0 mm | - | - | - |
| 1778014807 | 27.22° C | 33% | 1005.8 hPa | 0 mm | - | - | - |
| 1778012707 | 27.22° C | 34% | 1005.8 hPa | 0 mm | - | - | - |
| 1778012107 | 27.78° C | 32% | 1005.8 hPa | 0 mm | - | - | - |
| 1778010628 | 28.33° C | 33% | 1005.8 hPa | 0 mm | - | - | - |
| 1778009407 | 28.89° C | 36% | 1006.2 hPa | 0 mm | - | - | - |
| 1778009128 | 28.33° C | 38% | 1006.2 hPa | 0 mm | - | - | - |
| 1778008207 | 28.33° C | 36% | 1006.2 hPa | 0 mm | - | - | - |
| 1778007307 | 27.78° C | 39% | 1006.2 hPa | 0 mm | - | - | - |
| 1778007028 | 27.78° C | 37% | 1006.2 hPa | 0 mm | - | - | - |
| 1778006707 | 27.78° C | 39% | 1006.5 hPa | 0 mm | - | - | - |
| 1777998606 | 27.78° C | 43% | 1007.9 hPa | 0 mm | - | - | - |
| 1777998006 | 27.78° C | 41% | 1008.6 hPa | 0 mm | - | - | - |
| 1777997706 | 27.78° C | 43% | 1008.6 hPa | 0 mm | - | - | - |
| 1777997106 | 27.78° C | 43% | 1008.6 hPa | 0 mm | - | - | - |
* Rain latest hour (hover to see other rain measurements)
** Current wind speed in m/s (hover to see current wind gust speed)